Time;durP1;ratioP1;P1;durP2;ratioP2;P2;SDS_P1;SDS_P2;PMS_P1;PMS_P2;Temp;Humidity;BMP_temperature;BMP_pressure;BME280_temperature;BME280_humidity;BME280_pressure;Samples;Min_cycle;Max_cycle;Signal;HPM_P1;HPM_P2
2021/12/31 15:10:47;;;;;;;15.50;11.25;;;;;;;15.76;48.38;93806.88;5824120;23;20061;-81
2021/12/31 15:16:07;;;;;;;15.05;9.48;;;;;;;15.77;48.59;93814.59;5438895;23;20039;-82
2021/12/31 15:18:32;;;;;;;12.25;9.35;;;;;;;15.76;48.53;93823.25;4968699;28;20077;-83
2021/12/31 15:20:57;;;;;;;14.18;10.02;;;;;;;15.68;48.65;93824.91;5018063;28;20045;-81
2021/12/31 15:23:23;;;;;;;12.27;9.35;;;;;;;15.69;48.79;93818.22;5002631;23;20031;-81
2021/12/31 15:25:48;;;;;;;17.73;11.35;;;;;;;15.67;48.42;93826.88;4986176;23;20047;-81
2021/12/31 15:28:13;;;;;;;14.73;10.70;;;;;;;15.64;48.59;93810.75;4974591;28;20050;-82
2021/12/31 15:30:39;;;;;;;13.00;9.60;;;;;;;15.63;48.69;93803.78;5002844;23;20056;-81
2021/12/31 15:33:05;;;;;;;15.88;9.90;;;;;;;15.64;49.01;93802.56;4977988;28;20061;-82
2021/12/31 15:35:31;;;;;;;13.23;9.55;;;;;;;15.62;48.41;93786.69;4961148;28;20053;-81
2021/12/31 15:37:56;;;;;;;14.18;10.55;;;;;;;15.57;49.03;93781.97;4958666;28;20125;-81
2021/12/31 15:40:23;;;;;;;13.90;10.05;;;;;;;15.62;48.87;93783.97;4973988;28;20097;-82
2021/12/31 15:42:49;;;;;;;16.67;10.57;;;;;;;15.58;48.85;93780.00;4969483;28;20121;-83
2021/12/31 15:45:16;;;;;;;16.13;10.60;;;;;;;15.57;48.98;93767.59;4935818;28;20133;-83
2021/12/31 15:47:42;;;;;;;11.63;8.85;;;;;;;15.54;48.97;93771.25;4961807;28;20114;-84
2021/12/31 15:50:08;;;;;;;12.35;9.13;;;;;;;15.61;48.48;93766.13;4948830;28;20035;-82
2021/12/31 15:52:33;;;;;;;15.27;10.27;;;;;;;15.60;48.63;93758.44;4964965;28;20074;-82
2021/12/31 15:54:58;;;;;;;12.80;9.80;;;;;;;15.63;48.55;93758.22;4949138;28;20043;-82
2021/12/31 15:57:24;;;;;;;14.82;10.02;;;;;;;15.57;48.85;93762.88;4948738;28;20035;-84
2021/12/31 15:59:50;;;;;;;14.65;10.13;;;;;;;15.57;49.37;93770.31;4946429;28;20043;-83
2021/12/31 16:02:16;;;;;;;11.80;9.25;;;;;;;15.59;48.81;93767.88;4980792;28;20035;-83
2021/12/31 16:04:42;;;;;;;12.80;9.25;;;;;;;15.60;48.82;93772.81;4968432;28;20105;-83
2021/12/31 16:07:07;;;;;;;10.65;8.60;;;;;;;15.62;48.75;93766.88;4927703;28;20062;-82
2021/12/31 16:09:33;;;;;;;16.48;10.68;;;;;;;15.62;48.99;93764.88;4955779;28;20458;-84
2021/12/31 16:11:58;;;;;;;17.10;9.95;;;;;;;15.60;48.64;93761.91;4972498;28;20043;-82
2021/12/31 16:14:24;;;;;;;15.35;11.23;;;;;;;15.59;49.00;93759.69;4939063;28;20043;-83
2021/12/31 16:16:49;;;;;;;15.63;10.38;;;;;;;15.59;49.10;93774.03;4939884;28;20043;-84
2021/12/31 16:19:15;;;;;;;15.07;9.85;;;;;;;15.60;48.83;93772.06;4954764;28;20041;-84
2021/12/31 16:21:40;;;;;;;13.23;9.50;;;;;;;15.61;48.62;93773.53;4939171;28;20444;-83
2021/12/31 16:24:06;;;;;;;11.00;9.13;;;;;;;15.64;48.78;93764.41;4938529;28;20085;-83
2021/12/31 16:26:31;;;;;;;11.80;8.48;;;;;;;15.57;48.48;93764.88;4939179;28;20035;-83
2021/12/31 16:28:57;;;;;;;12.20;9.10;;;;;;;15.61;48.68;93771.56;4955167;28;20042;-83
2021/12/31 16:31:22;;;;;;;14.50;9.32;;;;;;;15.58;48.92;93747.28;4938411;28;20097;-84
2021/12/31 16:33:48;;;;;;;13.68;9.73;;;;;;;15.59;48.78;93732.44;4938872;28;20050;-82
2021/12/31 16:36:13;;;;;;;13.30;9.68;;;;;;;15.62;48.74;93734.16;4954110;28;20042;-83
2021/12/31 16:38:39;;;;;;;18.20;11.25;;;;;;;15.61;48.86;93716.31;4955624;28;20034;-83
2021/12/31 16:41:04;;;;;;;12.60;9.23;;;;;;;15.61;48.49;93710.88;4938551;28;20512;-82
2021/12/31 16:43:30;;;;;;;12.43;8.32;;;;;;;15.62;48.88;93715.09;4955095;28;20086;-83
2021/12/31 16:45:56;;;;;;;11.63;9.00;;;;;;;15.61;48.60;93724.50;4922644;28;20046;-82
2021/12/31 16:48:21;;;;;;;14.52;9.57;;;;;;;15.64;48.57;93731.72;4938626;28;20605;-83
2021/12/31 16:50:47;;;;;;;13.45;9.75;;;;;;;15.62;48.73;93739.63;4954497;28;20449;-82
2021/12/31 16:53:12;;;;;;;15.15;9.65;;;;;;;15.55;48.90;93745.50;4938190;28;20049;-82
2021/12/31 16:55:39;;;;;;;14.98;10.48;;;;;;;15.56;48.64;93736.13;4971989;28;20498;-82
2021/12/31 16:58:04;;;;;;;11.85;8.60;;;;;;;15.55;48.71;93729.16;4938146;28;20047;-83
2021/12/31 17:00:30;;;;;;;12.82;9.40;;;;;;;15.65;48.52;93738.66;4952238;28;20054;-84
2021/12/31 17:02:55;;;;;;;14.70;9.70;;;;;;;15.62;48.75;93715.84;4971480;28;20030;-83
2021/12/31 17:05:21;;;;;;;11.57;8.55;;;;;;;15.60;48.80;93715.56;4971211;28;20493;-83
2021/12/31 17:07:46;;;;;;;10.27;8.40;;;;;;;15.61;48.79;93727.22;4954261;28;20050;-83
2021/12/31 17:10:17;;;;;;;16.48;10.75;;;;;;;15.57;49.02;93732.91;4934249;29;20368;-83
2021/12/31 17:12:46;;;;;;;;;;;;;;;15.55;48.72;93740.78;4921465;29;20053;-84
2021/12/31 17:15:12;;;;;;;15.40;9.73;;;;;;;15.54;48.87;93731.13;4934901;28;19946;-84
2021/12/31 17:17:38;;;;;;;11.85;8.93;;;;;;;15.57;48.72;93734.91;4935097;28;20564;-82
2021/12/31 17:20:04;;;;;;;13.65;9.68;;;;;;;15.61;48.82;93746.28;4917996;28;20039;-83
2021/12/31 17:22:29;;;;;;;13.75;9.55;;;;;;;15.56;49.27;93745.03;4940848;28;20069;-84
2021/12/31 17:24:54;;;;;;;11.35;8.57;;;;;;;15.60;48.80;93739.34;4953853;28;20047;-82
2021/12/31 17:27:20;;;;;;;12.88;9.32;;;;;;;15.62;48.76;93737.63;4936106;28;20043;-83
2021/12/31 17:29:48;;;;;;;10.60;8.23;;;;;;;15.60;48.74;93748.28;4922595;28;20046;-82
2021/12/31 17:32:14;;;;;;;11.32;8.80;;;;;;;15.62;48.55;93745.81;4952850;28;20655;-83
2021/12/31 17:34:39;;;;;;;14.30;10.02;;;;;;;15.56;48.75;93728.69;4953882;28;20047;-83
2021/12/31 17:37:05;;;;;;;12.43;8.88;;;;;;;15.59;48.84;93705.91;4937265;28;20105;-83
2021/12/31 17:39:30;;;;;;;13.55;9.25;;;;;;;15.57;48.82;93719.28;4970655;28;20055;-84
2021/12/31 17:41:56;;;;;;;11.60;9.07;;;;;;;15.60;48.34;93740.09;4953481;28;20406;-82
2021/12/31 17:44:21;;;;;;;12.45;9.30;;;;;;;15.59;48.73;93738.59;4970655;28;20417;-84
2021/12/31 17:46:46;;;;;;;12.68;9.57;;;;;;;15.63;48.82;93724.75;4970718;28;20042;-84
2021/12/31 17:49:12;;;;;;;13.07;10.05;;;;;;;15.60;48.86;93747.53;4970567;28;20031;-82
2021/12/31 17:51:37;;;;;;;12.15;9.38;;;;;;;15.65;48.54;93735.94;4953687;28;20058;-84
2021/12/31 17:54:03;;;;;;;11.20;9.13;;;;;;;15.65;48.70;93733.94;4970387;28;20512;-83
2021/12/31 17:56:28;;;;;;;13.10;7.85;;;;;;;15.60;48.43;93733.91;4970837;28;20039;-83
2021/12/31 17:58:53;;;;;;;12.40;8.80;;;;;;;15.60;48.64;93747.53;4937278;28;20068;-82
2021/12/31 18:01:19;;;;;;;12.45;9.05;;;;;;;15.57;48.83;93751.25;4937053;28;20022;-83
2021/12/31 18:03:44;;;;;;;10.07;8.02;;;;;;;15.55;48.90;93743.53;4971169;28;20039;-84
2021/12/31 18:06:09;;;;;;;12.57;10.18;;;;;;;15.61;48.79;93749.78;4969755;28;20413;-83
2021/12/31 18:08:35;;;;;;;12.27;9.13;;;;;;;15.60;48.73;93755.69;4946418;28;20425;-82
2021/12/31 18:11:02;;;;;;;10.82;8.45;;;;;;;15.62;48.53;93755.97;4933327;28;20069;-83
2021/12/31 18:13:28;;;;;;;10.65;8.43;;;;;;;15.60;48.53;93758.44;4968040;28;20062;-84
2021/12/31 18:15:53;;;;;;;11.65;9.02;;;;;;;15.57;48.85;93760.16;4968360;28;20035;-82
2021/12/31 18:18:18;;;;;;;12.73;8.68;;;;;;;15.59;48.97;93759.69;4969627;28;20493;-82
2021/12/31 18:20:44;;;;;;;11.18;9.30;;;;;;;15.59;48.70;93757.69;4969293;28;20718;-81
2021/12/31 18:23:13;;;;;;;14.27;10.05;;;;;;;15.61;48.56;93770.81;4960988;28;20070;-84
2021/12/31 18:25:39;;;;;;;11.00;8.75;;;;;;;15.60;48.59;93766.59;4922395;28;20512;-82
2021/12/31 18:28:04;;;;;;;13.35;8.82;;;;;;;15.59;48.84;93765.13;4952473;28;20047;-83
2021/12/31 18:30:30;;;;;;;11.57;8.23;;;;;;;15.60;48.87;93761.91;4933457;28;20043;-84
2021/12/31 18:32:55;;;;;;;13.38;8.60;;;;;;;15.59;48.73;93765.84;4951093;28;20383;-82
2021/12/31 18:35:20;;;;;;;12.45;9.05;;;;;;;15.59;48.66;93757.69;4948990;28;20055;-83
2021/12/31 18:37:46;;;;;;;14.27;8.18;;;;;;;15.61;48.53;93751.75;4950017;28;20043;-82
2021/12/31 18:40:11;;;;;;;11.52;8.15;;;;;;;15.56;48.65;93744.31;4949041;28;20050;-82
2021/12/31 18:42:37;;;;;;;11.95;8.95;;;;;;;15.51;48.80;93740.25;4934369;28;20043;-83
2021/12/31 18:45:03;;;;;;;9.50;8.05;;;;;;;15.57;48.64;93735.66;4949050;28;20043;-81
2021/12/31 18:47:36;;;;;;;10.40;7.45;;;;;;;15.55;48.86;93732.63;4951102;28;20035;-82
2021/12/31 18:50:03;;;;;;;12.18;8.63;;;;;;;15.53;48.55;93731.63;4950503;28;20138;-83
2021/12/31 18:52:28;;;;;;;10.05;7.95;;;;;;;15.53;49.02;93747.97;4933070;28;20561;-83
2021/12/31 18:54:54;;;;;;;11.20;8.90;;;;;;;15.55;48.62;93738.06;4933351;28;20082;-84
2021/12/31 18:57:23;;;;;;;9.25;7.82;;;;;;;15.51;48.89;93740.25;4933355;28;20430;-82
2021/12/31 18:59:50;;;;;;;11.82;8.38;;;;;;;15.54;48.90;93742.03;4943134;28;20064;-82
2021/12/31 19:02:15;;;;;;;11.50;8.23;;;;;;;15.59;48.57;93740.63;4945855;28;20110;-81
2021/12/31 19:04:41;;;;;;;10.88;8.10;;;;;;;15.57;48.82;93743.06;4933808;28;20339;-82
2021/12/31 19:07:06;;;;;;;12.05;8.93;;;;;;;15.59;48.55;93740.63;4949971;28;20047;-84
2021/12/31 19:09:31;;;;;;;11.23;8.27;;;;;;;15.55;48.93;93742.78;4949418;28;20047;-82
2021/12/31 19:11:58;;;;;;;11.30;8.80;;;;;;;15.53;49.12;93756.13;4950382;28;20371;-82
2021/12/31 19:14:23;;;;;;;10.98;8.23;;;;;;;15.58;48.95;93758.94;4933059;28;20039;-82
2021/12/31 19:16:49;;;;;;;11.80;7.55;;;;;;;15.53;48.76;93753.41;4933429;28;20027;-84
2021/12/31 19:19:14;;;;;;;10.85;7.47;;;;;;;15.57;48.79;93770.31;4948552;28;20031;-82
2021/12/31 19:21:39;;;;;;;11.38;7.88;;;;;;;15.57;49.18;93762.88;4949304;28;20042;-84
2021/12/31 19:24:05;;;;;;;10.38;8.10;;;;;;;15.61;48.56;93774.28;4950109;28;20504;-83
2021/12/31 19:26:30;;;;;;;11.93;8.55;;;;;;;15.64;48.68;93775.31;4933200;28;20510;-82
2021/12/31 19:28:56;;;;;;;12.32;8.50;;;;;;;15.60;48.63;93774.78;4933269;28;20047;-82
2021/12/31 19:31:21;;;;;;;12.45;9.38;;;;;;;15.61;48.45;93774.28;4961187;28;20720;-84
2021/12/31 19:33:47;;;;;;;11.38;7.93;;;;;;;15.60;48.84;93772.81;4936483;28;20062;-83
2021/12/31 19:36:12;;;;;;;11.18;7.85;;;;;;;15.57;48.58;93771.06;4935068;28;20047;-83
2021/12/31 19:38:37;;;;;;;12.43;9.25;;;;;;;15.63;48.51;93760.19;4952604;28;20047;-84
2021/12/31 19:41:03;;;;;;;12.93;9.55;;;;;;;15.61;48.79;93763.41;4936115;28;20081;-82
2021/12/31 19:43:29;;;;;;;12.52;9.15;;;;;;;15.55;48.84;93753.69;4956069;28;20042;-82
2021/12/31 19:45:54;;;;;;;12.02;9.13;;;;;;;15.53;48.81;93751.44;4973203;28;20042;-81
2021/12/31 19:48:20;;;;;;;10.77;7.63;;;;;;;15.57;48.72;93754.72;4955371;28;20125;-84
2021/12/31 19:50:45;;;;;;;10.35;8.60;;;;;;;15.57;48.77;93765.63;4939718;28;20042;-84
2021/12/31 19:53:11;;;;;;;10.95;8.18;;;;;;;15.59;48.91;93776.75;4972490;28;20038;-83
2021/12/31 19:55:37;;;;;;;10.77;8.07;;;;;;;15.54;48.59;93793.06;4956126;28;20111;-83
2021/12/31 19:58:03;;;;;;;11.65;8.68;;;;;;;15.54;48.84;93788.34;4923487;28;20039;-84
2021/12/31 20:00:28;;;;;;;9.35;7.60;;;;;;;15.56;48.78;93775.03;4937287;28;20062;-83
2021/12/31 20:02:54;;;;;;;11.00;8.60;;;;;;;15.55;48.71;93773.50;4955714;28;20031;-82
2021/12/31 20:05:20;;;;;;;10.20;7.90;;;;;;;15.56;48.97;93774.28;4954893;28;20043;-82
2021/12/31 20:07:48;;;;;;;10.52;9.13;;;;;;;15.53;48.84;93767.78;4972723;28;20074;-83
2021/12/31 20:10:15;;;;;;;9.57;7.65;;;;;;;15.61;48.76;93789.91;4954854;28;20537;-83
2021/12/31 20:12:41;;;;;;;10.43;7.75;;;;;;;15.54;48.65;93790.31;4940346;28;20066;-83
2021/12/31 20:15:07;;;;;;;11.23;8.48;;;;;;;15.56;48.56;93788.66;4972497;28;20046;-84
2021/12/31 20:17:33;;;;;;;8.68;7.78;;;;;;;15.54;48.95;93793.06;4955694;28;20506;-83
2021/12/31 20:19:58;;;;;;;10.43;8.68;;;;;;;15.56;48.62;93799.53;4955298;28;20050;-83
2021/12/31 20:22:24;;;;;;;10.93;7.97;;;;;;;15.56;48.77;93793.34;4954436;28;20043;-83
2021/12/31 20:24:52;;;;;;;9.23;7.35;;;;;;;15.57;48.85;93806.50;4972330;28;20058;-83
2021/12/31 20:27:17;;;;;;;9.90;7.30;;;;;;;15.60;48.90;93802.03;4972286;28;20387;-83
2021/12/31 20:29:43;;;;;;;9.73;7.25;;;;;;;15.57;48.75;93803.75;4955637;28;20035;-83
2021/12/31 20:32:08;;;;;;;9.48;7.72;;;;;;;15.59;48.85;93806.72;4954363;28;20406;-82
2021/12/31 20:34:34;;;;;;;9.15;7.35;;;;;;;15.59;48.89;93808.72;4955022;28;20046;-82
2021/12/31 20:36:59;;;;;;;10.18;8.27;;;;;;;15.58;48.92;93820.88;4972316;28;20073;-82
2021/12/31 20:39:24;;;;;;;9.55;7.10;;;;;;;15.60;48.90;93821.09;4938680;28;20508;-82
2021/12/31 20:41:50;;;;;;;10.30;8.32;;;;;;;15.56;48.82;93821.34;4972377;28;20405;-84
2021/12/31 20:44:15;;;;;;;11.38;7.88;;;;;;;15.55;48.66;93828.00;4954246;28;20055;-81
2021/12/31 20:46:41;;;;;;;10.23;8.20;;;;;;;15.57;48.59;93839.19;4971830;28;20066;-82
2021/12/31 20:49:06;;;;;;;11.13;8.52;;;;;;;15.55;48.78;93846.31;4938188;28;20031;-82
2021/12/31 20:51:32;;;;;;;9.00;6.93;;;;;;;15.57;48.95;93841.91;4938760;28;20490;-82
2021/12/31 20:53:57;;;;;;;9.55;7.60;;;;;;;15.58;48.70;93856.28;4922855;28;20039;-82
2021/12/31 20:56:22;;;;;;;9.73;7.55;;;;;;;15.57;48.71;93858.25;4953948;28;20039;-83
2021/12/31 20:58:48;;;;;;;9.00;7.57;;;;;;;15.59;48.55;93863.22;4922703;28;20089;-82
2021/12/31 21:01:15;;;;;;;9.43;7.00;;;;;;;15.56;48.90;93867.66;4921935;28;20438;-83
2021/12/31 21:03:40;;;;;;;12.07;7.72;;;;;;;15.57;48.79;93860.25;4972080;28;20038;-83
2021/12/31 21:06:06;;;;;;;8.98;7.57;;;;;;;15.56;48.87;93856.00;4971008;28;20508;-82
2021/12/31 21:08:31;;;;;;;10.45;7.95;;;;;;;15.60;48.74;93878.31;4954384;28;20498;-83
2021/12/31 21:10:56;;;;;;;10.15;8.40;;;;;;;15.56;48.77;93878.56;4954298;28;20035;-84
2021/12/31 21:13:22;;;;;;;13.05;8.55;;;;;;;15.60;48.57;93870.16;4954064;28;20089;-82
2021/12/31 21:15:48;;;;;;;10.65;7.57;;;;;;;15.56;48.90;93875.84;4922760;28;20472;-82
2021/12/31 21:18:13;;;;;;;10.73;8.55;;;;;;;15.61;48.86;93885.28;4937603;28;20062;-82
2021/12/31 21:20:39;;;;;;;8.65;7.65;;;;;;;15.59;48.84;93893.94;4938316;28;20057;-83
2021/12/31 21:23:04;;;;;;;9.80;7.70;;;;;;;15.57;48.79;93882.03;4937925;28;20046;-82
2021/12/31 21:25:29;;;;;;;9.52;7.65;;;;;;;15.57;48.63;93899.13;4954544;28;20117;-84
2021/12/31 21:27:56;;;;;;;10.80;7.88;;;;;;;15.55;48.93;93896.13;4954203;28;20050;-82
2021/12/31 21:30:21;;;;;;;10.90;8.48;;;;;;;15.61;48.94;93893.44;4921495;28;20034;-83
2021/12/31 21:32:47;;;;;;;9.70;7.75;;;;;;;15.53;48.65;93895.84;4938118;28;20039;-83
2021/12/31 21:35:12;;;;;;;10.07;7.45;;;;;;;15.57;48.68;93887.50;4936622;28;20047;-83
2021/12/31 21:37:40;;;;;;;10.95;7.30;;;;;;;15.55;48.70;93890.66;4971221;28;20050;-81
2021/12/31 21:40:07;;;;;;;10.50;7.55;;;;;;;15.51;48.95;93890.13;4953528;28;20046;-82
2021/12/31 21:42:33;;;;;;;9.00;7.60;;;;;;;15.54;48.35;93891.88;4953640;28;20173;-82
2021/12/31 21:44:58;;;;;;;10.00;7.55;;;;;;;15.58;48.90;93894.44;4953999;28;20035;-82
2021/12/31 21:47:24;;;;;;;8.52;7.35;;;;;;;15.57;49.12;93895.66;4970144;28;20458;-82
2021/12/31 21:49:49;;;;;;;9.20;7.20;;;;;;;15.58;48.75;93894.44;4970615;28;20417;-82
2021/12/31 21:52:14;;;;;;;10.48;7.75;;;;;;;15.55;48.90;93889.91;4952547;28;20046;-81
2021/12/31 21:54:40;;;;;;;11.00;7.45;;;;;;;15.59;48.64;93885.03;4953655;28;20105;-82
2021/12/31 21:57:06;;;;;;;9.00;7.43;;;;;;;15.55;48.56;93892.63;4936949;28;20099;-84
2021/12/31 21:59:31;;;;;;;9.43;7.32;;;;;;;15.58;48.42;93878.84;4966607;28;20110;-82
2021/12/31 22:01:57;;;;;;;9.43;7.38;;;;;;;15.60;48.83;93889.22;4953107;28;20031;-83
2021/12/31 22:04:22;;;;;;;11.20;8.23;;;;;;;15.55;48.94;93898.84;4952566;28;20070;-84
2021/12/31 22:06:47;;;;;;;8.80;6.90;;;;;;;15.59;48.61;93901.38;4970914;28;20039;-85
2021/12/31 22:09:13;;;;;;;9.05;6.65;;;;;;;15.60;48.50;93911.03;4966807;28;20445;-82
2021/12/31 22:11:39;;;;;;;9.07;7.38;;;;;;;15.57;48.72;93907.31;4965993;28;20038;-82
2021/12/31 22:14:06;;;;;;;9.50;7.07;;;;;;;15.54;48.75;93910.22;4967456;28;20038;-83
2021/12/31 22:16:31;;;;;;;13.30;7.65;;;;;;;15.57;48.67;93906.56;4952404;28;20050;-83
2021/12/31 22:18:56;;;;;;;9.57;7.78;;;;;;;15.57;48.71;93917.47;4953017;28;20430;-82
2021/12/31 22:21:22;;;;;;;11.95;7.88;;;;;;;15.58;48.59;93918.97;4952766;28;20042;-83
2021/12/31 22:23:47;;;;;;;10.88;8.13;;;;;;;15.58;48.69;93929.88;4940900;28;20046;-83
2021/12/31 22:26:13;;;;;;;10.30;8.55;;;;;;;15.60;48.55;93933.56;4969806;28;20050;-82
2021/12/31 22:28:38;;;;;;;10.23;8.13;;;;;;;15.60;48.39;93930.09;4936806;28;20443;-84
2021/12/31 22:31:03;;;;;;;9.82;7.78;;;;;;;15.58;48.50;93929.88;4949294;28;20055;-81
2021/12/31 22:33:29;;;;;;;8.50;6.90;;;;;;;15.57;48.65;93940.00;4933813;28;20043;-83
2021/12/31 22:35:54;;;;;;;9.88;7.13;;;;;;;15.61;48.74;93940.53;4949430;28;20039;-82
2021/12/31 22:38:21;;;;;;;8.40;7.38;;;;;;;15.53;48.60;93942.16;4917886;28;20410;-84
2021/12/31 22:40:47;;;;;;;9.77;6.70;;;;;;;15.56;48.88;93935.78;4949970;28;20039;-83
2021/12/31 22:43:12;;;;;;;11.93;7.75;;;;;;;15.55;48.74;93945.16;4950688;28;20039;-84
2021/12/31 22:45:37;;;;;;;9.00;7.18;;;;;;;15.56;48.79;93938.50;4951102;28;20047;-83
2021/12/31 22:48:03;;;;;;;8.25;6.50;;;;;;;15.52;48.58;93932.50;4950138;28;20406;-84
2021/12/31 22:50:28;;;;;;;8.50;6.50;;;;;;;15.50;48.79;93929.50;4949477;28;20043;-85
2021/12/31 22:52:54;;;;;;;8.95;7.32;;;;;;;15.53;48.82;93923.09;4949633;28;20036;-82
2021/12/31 22:55:20;;;;;;;7.20;6.18;;;;;;;15.55;48.90;93928.06;4933453;28;20036;-84
2021/12/31 22:57:45;;;;;;;10.20;6.80;;;;;;;15.51;48.79;93944.63;4934026;28;20050;-84
2021/12/31 23:00:12;;;;;;;9.75;6.70;;;;;;;15.55;48.97;93958.78;4932460;28;20027;-83
2021/12/31 23:02:38;;;;;;;8.13;6.68;;;;;;;15.53;48.65;93957.75;4949795;28;20043;-83
2021/12/31 23:05:05;;;;;;;9.65;7.60;;;;;;;15.48;48.88;93953.00;4948963;28;20047;-82
2021/12/31 23:07:30;;;;;;;9.13;7.38;;;;;;;15.48;49.11;93961.91;4933579;28;20039;-83
2021/12/31 23:09:55;;;;;;;8.40;6.75;;;;;;;15.48;48.77;93967.38;4933157;29;20058;-82
2021/12/31 23:12:21;;;;;;;9.00;7.50;;;;;;;15.52;48.92;93957.00;4950499;28;20106;-84
2021/12/31 23:14:46;;;;;;;12.93;7.38;;;;;;;15.54;49.00;93960.00;4933545;28;20075;-84
2021/12/31 23:17:11;;;;;;;10.30;7.28;;;;;;;15.51;48.95;93966.41;4950489;28;20112;-84
2021/12/31 23:19:37;;;;;;;9.13;7.15;;;;;;;15.55;48.59;93963.47;4937426;28;20465;-83
2021/12/31 23:22:02;;;;;;;9.95;6.85;;;;;;;15.52;48.88;93953.53;4952688;28;20040;-83
2021/12/31 23:24:28;;;;;;;7.80;6.22;;;;;;;15.49;49.00;93970.84;4937689;28;20073;-82
2021/12/31 23:26:53;;;;;;;9.43;6.88;;;;;;;15.50;48.63;93975.06;4937322;28;20035;-82
2021/12/31 23:29:19;;;;;;;9.52;7.07;;;;;;;15.50;49.05;93977.78;4953685;28;20047;-83
2021/12/31 23:31:44;;;;;;;9.98;7.13;;;;;;;15.51;48.72;93987.47;4921072;29;20505;-84
2021/12/31 23:34:10;;;;;;;8.30;7.13;;;;;;;15.49;48.64;93990.66;4936128;28;20621;-82
2021/12/31 23:36:35;;;;;;;8.27;7.22;;;;;;;15.49;48.91;93977.03;4937431;28;20035;-82
2021/12/31 23:39:04;;;;;;;9.45;7.05;;;;;;;15.51;48.92;93985.47;4954091;28;20039;-84
2021/12/31 23:41:56;;;;;;;9.10;7.25;;;;;;;15.51;49.04;93979.28;4937325;28;20482;-83
2021/12/31 23:44:22;;;;;;;8.80;7.13;;;;;;;15.51;49.02;93988.22;4939241;28;21502;-84
2021/12/31 23:46:50;;;;;;;8.85;6.82;;;;;;;15.51;48.95;93990.19;4952811;28;20054;-84
2021/12/31 23:49:16;;;;;;;8.40;6.78;;;;;;;15.50;48.83;94000.34;4936094;28;20027;-82
2021/12/31 23:51:46;;;;;;;9.00;6.88;;;;;;;15.50;48.75;94008.50;4920827;29;20162;-83
2021/12/31 23:54:12;;;;;;;8.50;6.82;;;;;;;15.53;48.57;94010.28;4935520;28;20070;-83
2021/12/31 23:56:37;;;;;;;7.90;6.70;;;;;;;15.49;48.76;94017.16;4936746;28;20394;-82
2021/12/31 23:59:02;;;;;;;9.98;7.22;;;;;;;15.51;48.86;94006.53;4951478;28;20046;-81
